ストックホルム/アーランダ の空港の天気 - METARとTAF

ストックホルム・アーランダ空港 ( ESSA / ARN ) - スウェーデン ストックホルム
飛行場実況気象(Metar)
観測時間01/18 10:20 CET (01/18 09:20 UTC)
風向・風速東北東 3m/s
視程8000m
天気現象弱い雪
全天の8割程度の雲 雲底高度 610m
気温-4℃
湿度93%
気圧995hPa
METARESSA 180920Z 06006KT 8000 -SN BKN020 M04/M05 Q0995 R01L/510175 R01R/510182 R08/550275 NOSIG
過去の天気等 Google飛行場航空写真 Wunderground天気予報

過去48時間のMETAR

飛行場予報(TAF)
発表時間: 1/18 06:30 CET (1/18 05:30 UTC)
予報対象時間: 18日7時 CET ~ 19日7時 CET
風向・風速東北東 3m/s
視程10km以上
天気現象弱い雪
全天の8割程度の雲 雲底高度 910m
18日7時 CET ~ 18日12時 CET に一時的に
視程4,000m
18日12時 CET ~ 18日23時 CET に一時的に
視程2,000m
天気現象弱い雪
全天の8割程度の雲 雲底高度 370m
18日23時 CET から 確率 40% で
視程4,500m
TAF ESSA 180530Z 1806/1906 06005KT 9999 -SN BKN030
TEMPO 1806/1811 4000
TEMPO 1811/1822 2000 -SN BKN012
PROB40 1822/1906 4500